Time;durP1;ratioP1;P1;durP2;ratioP2;P2;SDS_P1;SDS_P2;PMS_P1;PMS_P2;Temp;Humidity;BMP_temperature;BMP_pressure;BME280_temperature;BME280_humidity;BME280_pressure;Samples;Min_cycle;Max_cycle;Signal;HPM_P1;HPM_P2
2022/03/09 00:00:38;;;;;;;18.40;7.60;;;;;;;11.47;31.01;102176.28;5113106;28;20027;-71
2022/03/09 00:03:04;;;;;;;16.23;7.30;;;;;;;11.76;30.68;102178.22;5112988;28;20015;-71
2022/03/09 00:05:30;;;;;;;14.93;6.70;;;;;;;11.85;30.57;102183.53;5112096;28;20538;-71
2022/03/09 00:07:55;;;;;;;17.60;8.10;;;;;;;11.54;30.80;102184.19;5089473;28;20016;-70
2022/03/09 00:10:20;;;;;;;16.97;8.20;;;;;;;11.18;31.39;102184.75;5101875;28;20031;-71
2022/03/09 00:12:46;;;;;;;16.50;8.10;;;;;;;10.99;31.61;102192.47;5112281;28;20031;-71
2022/03/09 00:15:11;;;;;;;18.43;7.50;;;;;;;11.96;30.32;102187.13;5089918;28;20119;-71
2022/03/09 00:17:37;;;;;;;15.10;7.03;;;;;;;12.11;29.94;102186.31;5108904;28;20016;-71
2022/03/09 00:20:04;;;;;;;17.10;7.80;;;;;;;11.50;31.13;102200.75;5111868;28;20471;-71
2022/03/09 00:22:29;;;;;;;18.97;8.27;;;;;;;11.95;30.47;102206.34;5111214;28;20031;-71
2022/03/09 00:24:55;;;;;;;16.57;7.40;;;;;;;11.64;30.52;102206.09;5111066;28;20047;-71
2022/03/09 00:27:20;;;;;;;13.97;6.80;;;;;;;11.70;30.25;102210.50;5111271;28;20038;-71
2022/03/09 00:29:45;;;;;;;16.90;7.87;;;;;;;10.37;32.28;102213.53;5111167;28;20364;-71
2022/03/09 00:32:13;;;;;;;19.03;8.60;;;;;;;10.44;32.72;102210.13;5113080;27;20062;-71
2022/03/09 00:34:38;;;;;;;16.67;8.50;;;;;;;10.31;32.83;102209.94;5112846;28;20026;-71
2022/03/09 00:37:04;;;;;;;19.80;8.17;;;;;;;10.66;32.53;102216.50;5110558;28;20428;-71
2022/03/09 00:39:29;;;;;;;18.40;7.30;;;;;;;11.31;31.15;102212.81;5111653;28;20036;-71
2022/03/09 00:41:55;;;;;;;13.77;7.07;;;;;;;11.44;30.72;102215.53;5111937;28;20027;-73
2022/03/09 00:44:20;;;;;;;18.03;8.47;;;;;;;11.09;31.63;102216.09;5111366;28;20103;-71
2022/03/09 00:46:46;;;;;;;20.53;8.10;;;;;;;10.86;31.98;102219.34;5111126;28;20076;-71
2022/03/09 00:49:11;;;;;;;16.87;7.33;;;;;;;11.67;30.72;102216.59;5110584;28;20050;-71
2022/03/09 00:51:36;;;;;;;15.77;7.47;;;;;;;11.56;30.57;102220.88;5110929;28;20034;-71
2022/03/09 00:54:02;;;;;;;17.10;7.60;;;;;;;11.18;31.52;102229.25;5110848;28;20108;-71
2022/03/09 00:56:27;;;;;;;18.80;8.07;;;;;;;11.94;30.16;102216.75;5111717;28;20440;-71
2022/03/09 00:58:53;;;;;;;15.77;7.90;;;;;;;10.65;31.85;102233.94;5111215;28;20036;-71
2022/03/09 01:01:18;;;;;;;17.43;8.23;;;;;;;11.27;31.30;102229.34;5111884;28;20023;-71
2022/03/09 01:03:44;;;;;;;16.80;8.17;;;;;;;10.96;31.33;102226.44;5110042;28;20478;-71
2022/03/09 01:06:09;;;;;;;16.43;7.87;;;;;;;9.99;32.91;102231.28;5110107;28;20402;-71
2022/03/09 01:08:34;;;;;;;16.13;7.67;;;;;;;11.36;30.83;102224.22;5111457;28;20493;-71
2022/03/09 01:11:00;;;;;;;14.87;7.33;;;;;;;11.13;31.34;102229.22;5110102;28;20024;-72
2022/03/09 01:13:25;;;;;;;16.03;7.73;;;;;;;11.50;30.62;102223.47;5110307;28;20483;-71
2022/03/09 01:15:53;;;;;;;14.40;7.43;;;;;;;11.08;31.24;102219.56;5111140;28;20030;-71
2022/03/09 01:18:18;;;;;;;14.20;7.73;;;;;;;11.14;31.27;102219.63;5109807;28;20069;-71
2022/03/09 01:20:44;;;;;;;19.40;8.30;;;;;;;11.36;30.72;102215.47;5110974;28;20031;-71
2022/03/09 01:23:09;;;;;;;14.50;7.33;;;;;;;10.82;31.55;102217.56;5109080;28;20302;-71
2022/03/09 01:25:35;;;;;;;14.47;6.97;;;;;;;10.97;31.02;102217.72;5111360;28;20039;-71
2022/03/09 01:28:00;;;;;;;16.90;7.47;;;;;;;12.09;29.95;102213.41;5110454;28;20360;-71
2022/03/09 01:30:25;;;;;;;23.37;7.87;;;;;;;12.22;29.36;102216.09;5111543;27;20036;-71
2022/03/09 01:32:51;;;;;;;17.13;7.30;;;;;;;11.27;31.18;102211.03;5109646;28;20032;-71
2022/03/09 01:35:17;;;;;;;18.37;7.13;;;;;;;11.18;31.14;102224.91;5110410;28;20471;-71
2022/03/09 01:37:45;;;;;;;16.77;7.60;;;;;;;12.02;30.12;102213.38;5110270;28;20024;-71
2022/03/09 01:40:11;;;;;;;17.40;7.80;;;;;;;11.77;30.15;102221.91;5109087;28;20080;-71
2022/03/09 01:42:36;;;;;;;14.60;7.23;;;;;;;11.29;30.76;102225.03;5110590;28;20034;-71
2022/03/09 01:45:08;;;;;;;14.60;7.67;;;;;;;11.09;31.30;102231.81;5110396;28;20490;-71
2022/03/09 01:47:33;;;;;;;19.50;7.60;;;;;;;11.21;31.29;102226.69;5109899;28;20379;-71
2022/03/09 01:49:59;;;;;;;16.57;7.80;;;;;;;10.10;32.87;102221.00;5109947;28;20023;-71
2022/03/09 01:52:25;;;;;;;18.43;8.20;;;;;;;10.59;32.25;102215.56;5109034;28;20031;-71
2022/03/09 01:54:52;;;;;;;16.93;7.97;;;;;;;10.57;32.50;102212.03;5111141;27;20524;-71
2022/03/09 01:57:19;;;;;;;14.57;7.80;;;;;;;10.19;32.94;102199.31;5109367;28;20117;-71
2022/03/09 01:59:47;;;;;;;16.63;7.40;;;;;;;9.98;33.46;102203.41;5109049;28;20011;-71
2022/03/09 02:02:12;;;;;;;17.30;8.37;;;;;;;9.94;33.45;102201.59;5110512;28;20027;-71
2022/03/09 02:04:38;;;;;;;16.33;8.00;;;;;;;10.94;31.91;102202.00;5109902;28;20073;-71
2022/03/09 02:07:07;;;;;;;18.53;8.33;;;;;;;10.98;31.85;102197.69;5109119;28;20509;-71
2022/03/09 02:09:42;;;;;;;14.50;7.60;;;;;;;11.26;31.30;102193.56;5109980;28;20019;-71
2022/03/09 02:12:11;;;;;;;17.23;7.57;;;;;;;11.15;31.00;102200.44;5110462;28;20027;-71
2022/03/09 02:15:03;;;;;;;15.80;6.70;;;;;;;10.35;32.22;102197.84;5109073;28;20034;-71
2022/03/09 02:17:28;;;;;;;16.43;7.23;;;;;;;9.86;33.19;102200.59;5105981;28;20426;-71
2022/03/09 02:19:55;;;;;;;20.27;7.97;;;;;;;11.23;31.06;102188.31;5110959;28;20023;-71
2022/03/09 02:22:33;;;;;;;17.47;8.50;;;;;;;10.85;31.85;102196.66;5108245;28;20110;-71
2022/03/09 02:24:59;;;;;;;16.30;8.43;;;;;;;11.11;31.25;102188.19;5130240;27;20128;-70
2022/03/09 02:27:25;;;;;;;16.90;7.70;;;;;;;10.72;31.84;102200.03;5112284;27;20398;-71
2022/03/09 02:29:52;;;;;;;14.00;7.17;;;;;;;10.25;32.91;102194.19;5130209;27;20019;-71
2022/03/09 02:32:18;;;;;;;16.37;7.83;;;;;;;10.76;31.77;102191.34;5121717;27;20078;-71
2022/03/09 02:34:44;;;;;;;17.47;7.33;;;;;;;10.56;32.16;102194.59;5112941;27;20595;-71
2022/03/09 02:37:09;;;;;;;14.50;6.93;;;;;;;11.09;31.20;102195.16;5112478;28;20053;-71
2022/03/09 02:39:36;;;;;;;13.90;6.83;;;;;;;11.56;30.49;102196.44;5113088;28;20023;-71
2022/03/09 02:42:01;;;;;;;13.70;6.47;;;;;;;9.66;33.22;102203.81;5111548;28;20485;-71
2022/03/09 02:44:27;;;;;;;19.07;7.77;;;;;;;10.73;32.08;102202.66;5105986;28;20023;-71
2022/03/09 02:46:52;;;;;;;13.70;7.37;;;;;;;11.08;31.45;102198.63;5111717;28;20058;-72
2022/03/09 02:49:18;;;;;;;15.87;6.63;;;;;;;10.96;31.15;102199.38;5111610;28;20110;-71
2022/03/09 02:51:43;;;;;;;16.17;7.17;;;;;;;10.78;31.71;102194.84;5113030;28;20027;-71
2022/03/09 02:54:09;;;;;;;15.63;7.17;;;;;;;10.25;32.72;102199.41;5112513;28;20022;-71
2022/03/09 02:56:34;;;;;;;15.27;7.27;;;;;;;9.98;32.74;102189.47;5129573;28;20027;-71
2022/03/09 02:59:00;;;;;;;18.90;7.53;;;;;;;10.78;32.14;102200.06;5112759;28;20027;-71
2022/03/09 03:01:25;;;;;;;14.70;7.33;;;;;;;10.35;32.39;102190.84;5112445;28;20595;-71
2022/03/09 03:03:50;;;;;;;16.20;8.00;;;;;;;10.62;32.07;102199.91;5130747;28;20424;-71
2022/03/09 03:06:16;;;;;;;16.63;7.60;;;;;;;10.60;32.79;102185.06;5111640;27;20028;-71
2022/03/09 03:08:41;;;;;;;15.37;7.27;;;;;;;10.16;33.12;102194.06;5114183;27;20103;-71
2022/03/09 03:11:08;;;;;;;15.07;7.03;;;;;;;9.82;33.62;102183.13;5133689;27;20042;-71
2022/03/09 03:13:34;;;;;;;17.10;8.57;;;;;;;9.96;33.17;102185.94;5135552;27;20051;-71
2022/03/09 03:16:00;;;;;;;17.17;7.23;;;;;;;9.76;33.41;102188.28;5134823;27;20096;-71
2022/03/09 03:18:25;;;;;;;15.80;7.37;;;;;;;9.98;33.12;102179.88;5114993;27;20478;-71
2022/03/09 03:20:54;;;;;;;17.57;7.27;;;;;;;10.67;31.52;102181.66;5116601;27;20023;-71
2022/03/09 03:23:24;;;;;;;13.10;6.63;;;;;;;10.70;32.15;102181.66;5116090;27;20864;-71
2022/03/09 03:25:50;;;;;;;12.03;6.80;;;;;;;11.20;31.00;102177.81;5134499;27;20030;-71
2022/03/09 03:28:16;;;;;;;14.13;7.53;;;;;;;10.65;31.91;102181.63;5115688;27;20478;-71
2022/03/09 03:30:42;;;;;;;17.67;7.57;;;;;;;11.35;30.79;102171.84;5115719;27;20011;-71
2022/03/09 03:33:08;;;;;;;14.57;6.67;;;;;;;10.55;31.77;102181.50;5115893;27;20536;-71
2022/03/09 03:35:33;;;;;;;15.40;7.03;;;;;;;9.91;32.84;102180.66;5111897;28;20020;-71
2022/03/09 03:37:58;;;;;;;16.00;6.90;;;;;;;9.98;32.79;102185.09;5110114;27;20031;-72
2022/03/09 03:40:24;;;;;;;19.70;7.90;;;;;;;10.74;31.52;102178.22;5116125;27;20034;-71
2022/03/09 03:42:49;;;;;;;13.57;5.93;;;;;;;10.69;31.64;102179.94;5116600;27;20034;-72
2022/03/09 03:45:14;;;;;;;16.30;7.63;;;;;;;10.60;32.00;102175.47;5133072;27;20541;-72
2022/03/09 03:47:40;;;;;;;16.43;7.60;;;;;;;10.82;31.35;102180.94;5134426;27;20031;-72
2022/03/09 03:50:06;;;;;;;16.77;7.70;;;;;;;9.83;32.96;102180.53;5115768;27;20015;-72
2022/03/09 03:52:31;;;;;;;17.73;6.97;;;;;;;10.20;32.39;102180.19;5133383;27;20091;-72
2022/03/09 03:54:56;;;;;;;12.57;6.30;;;;;;;10.89;31.42;102180.13;5134157;27;20062;-72
2022/03/09 03:57:22;;;;;;;13.13;6.70;;;;;;;10.91;31.28;102181.03;5098307;27;20041;-72
2022/03/09 03:59:47;;;;;;;18.43;7.17;;;;;;;10.33;32.30;102179.50;5115405;27;20019;-72
2022/03/09 04:02:12;;;;;;;15.43;7.47;;;;;;;8.97;34.51;102184.34;5133693;27;20518;-72
2022/03/09 04:04:38;;;;;;;17.03;7.27;;;;;;;9.85;33.46;102175.38;5116223;27;20514;-72
2022/03/09 04:07:03;;;;;;;15.47;7.20;;;;;;;10.33;32.51;102176.88;5103615;28;20031;-72
2022/03/09 04:09:28;;;;;;;12.87;6.97;;;;;;;10.32;32.21;102177.72;5113537;28;20023;-72
2022/03/09 04:11:54;;;;;;;16.63;7.37;;;;;;;10.98;30.99;102188.06;5107349;27;20023;-72
2022/03/09 04:14:22;;;;;;;15.77;7.03;;;;;;;11.25;30.44;102183.97;5114928;27;20482;-72
2022/03/09 04:16:50;;;;;;;13.10;6.70;;;;;;;11.90;29.82;102181.81;5115011;27;20104;-72
2022/03/09 04:19:16;;;;;;;14.33;7.70;;;;;;;10.49;32.16;102177.94;5132928;27;20035;-72
2022/03/09 04:21:41;;;;;;;17.47;7.10;;;;;;;9.66;33.87;102182.91;5132728;27;20542;-72
2022/03/09 04:24:06;;;;;;;15.93;6.43;;;;;;;9.28;33.81;102175.34;5133486;27;20043;-72
2022/03/09 04:26:32;;;;;;;13.90;6.63;;;;;;;10.16;32.71;102167.94;5114974;27;20018;-72
2022/03/09 04:28:59;;;;;;;16.87;6.40;;;;;;;10.84;31.46;102174.00;5133029;27;20067;-71
2022/03/09 04:31:24;;;;;;;14.83;7.73;;;;;;;10.56;32.04;102168.44;5133162;27;20447;-72
2022/03/09 04:33:49;;;;;;;16.93;7.37;;;;;;;9.62;33.44;102164.56;5133540;27;20167;-72
2022/03/09 04:36:15;;;;;;;13.90;6.20;;;;;;;9.75;33.18;102161.28;5131954;27;20030;-72
2022/03/09 04:38:40;;;;;;;17.50;6.87;;;;;;;10.93;31.28;102171.44;5115207;27;20019;-72
2022/03/09 04:41:06;;;;;;;18.13;7.40;;;;;;;11.02;30.74;102174.16;5113390;27;20033;-72
2022/03/09 04:43:31;;;;;;;13.30;6.33;;;;;;;10.32;32.20;102180.34;5115390;27;20382;-72
2022/03/09 04:45:56;;;;;;;17.90;7.43;;;;;;;10.94;31.14;102175.81;5114059;27;20481;-71
2022/03/09 04:48:22;;;;;;;17.03;7.07;;;;;;;10.85;31.21;102181.84;5132238;27;20084;-72
2022/03/09 04:50:47;;;;;;;15.50;7.47;;;;;;;11.44;30.22;102176.25;5133398;27;20057;-72
2022/03/09 04:53:12;;;;;;;17.57;6.57;;;;;;;10.31;32.20;102177.72;5114202;27;20186;-72
2022/03/09 04:55:38;;;;;;;13.57;6.83;;;;;;;10.35;32.28;102169.09;5113667;27;20037;-72
2022/03/09 04:58:03;;;;;;;13.70;7.10;;;;;;;9.34;33.76;102180.69;5114392;27;20027;-72
2022/03/09 05:00:29;;;;;;;15.07;7.23;;;;;;;9.37;33.88;102185.06;5114406;27;20033;-72
2022/03/09 05:02:55;;;;;;;15.97;6.13;;;;;;;10.32;32.05;102180.34;5131849;27;20115;-72
2022/03/09 05:05:20;;;;;;;13.53;7.33;;;;;;;10.47;31.96;102187.53;5114394;27;20019;-72
2022/03/09 05:07:45;;;;;;;14.67;6.93;;;;;;;9.65;33.49;102188.13;5114377;27;20030;-72
2022/03/09 05:10:11;;;;;;;14.47;6.60;;;;;;;9.42;33.54;102188.59;5131817;27;20561;-72
2022/03/09 05:12:36;;;;;;;17.27;7.37;;;;;;;9.68;33.29;102186.44;5114380;27;20019;-72
2022/03/09 05:15:06;;;;;;;13.20;7.20;;;;;;;10.23;32.13;102195.88;5113877;27;20019;-72
2022/03/09 05:17:31;;;;;;;13.33;7.47;;;;;;;10.32;31.79;102189.94;5113030;27;20454;-72
2022/03/09 05:19:57;;;;;;;15.50;7.30;;;;;;;10.03;32.27;102193.03;5132649;27;20051;-72
2022/03/09 05:22:22;;;;;;;15.83;7.00;;;;;;;10.82;30.99;102186.16;5113910;27;20091;-72
2022/03/09 05:24:48;;;;;;;18.83;7.63;;;;;;;9.89;32.80;102195.44;5113305;27;20078;-72
2022/03/09 05:27:13;;;;;;;14.97;6.37;;;;;;;10.11;32.22;102190.50;5113173;27;20138;-71
2022/03/09 05:29:38;;;;;;;14.83;6.37;;;;;;;9.50;33.71;102196.56;5114100;27;20399;-72
2022/03/09 05:32:05;;;;;;;15.60;6.37;;;;;;;9.52;33.20;102197.50;5112647;27;20034;-72
2022/03/09 05:34:30;;;;;;;10.40;5.60;;;;;;;9.18;34.10;102204.75;5113923;27;20028;-72
2022/03/09 05:36:55;;;;;;;12.30;6.40;;;;;;;9.32;33.88;102198.03;5131705;27;20153;-72
2022/03/09 05:39:21;;;;;;;16.30;7.00;;;;;;;9.65;33.45;102199.41;5112861;27;20023;-72
2022/03/09 05:41:47;;;;;;;16.80;7.67;;;;;;;9.14;34.19;102198.59;5132333;27;20026;-72
2022/03/09 05:44:13;;;;;;;15.13;6.33;;;;;;;9.63;33.26;102198.53;5113359;27;20397;-72
2022/03/09 05:46:39;;;;;;;20.33;6.47;;;;;;;10.64;31.61;102200.78;5131101;27;20015;-72
2022/03/09 05:49:05;;;;;;;12.83;5.77;;;;;;;10.28;32.30;102204.69;5113163;27;20864;-72
2022/03/09 05:51:31;;;;;;;15.07;8.00;;;;;;;9.77;32.79;102205.72;5112891;27;20160;-72
2022/03/09 05:53:56;;;;;;;19.90;7.27;;;;;;;9.50;33.55;102207.03;5113711;27;20106;-72
2022/03/09 05:56:22;;;;;;;11.43;6.00;;;;;;;10.64;31.59;102208.63;5111857;27;20035;-72
2022/03/09 05:58:47;;;;;;;15.17;6.87;;;;;;;10.82;31.21;102214.94;5113255;27;20088;-72
2022/03/09 06:01:12;;;;;;;12.57;6.13;;;;;;;10.56;31.24;102215.50;5131269;27;20026;-72
2022/03/09 06:03:38;;;;;;;14.63;6.73;;;;;;;10.41;31.86;102225.78;5113496;28;20027;-72
2022/03/09 06:06:04;;;;;;;16.53;6.50;;;;;;;10.60;31.57;102219.03;5112097;27;20019;-72
2022/03/09 06:08:31;;;;;;;17.90;6.87;;;;;;;11.10;30.75;102226.59;5113255;27;20041;-72
2022/03/09 06:10:56;;;;;;;14.57;6.90;;;;;;;10.18;31.38;102229.81;5113071;27;20491;-72
2022/03/09 06:13:21;;;;;;;17.63;8.40;;;;;;;10.31;31.81;102233.47;5130280;27;20050;-71
2022/03/09 06:15:48;;;;;;;20.87;7.10;;;;;;;10.34;31.93;102230.00;5096049;27;20117;-72
2022/03/09 06:18:13;;;;;;;15.60;7.03;;;;;;;10.98;31.05;102229.06;5130984;27;20409;-71
2022/03/09 06:20:39;;;;;;;16.83;6.70;;;;;;;10.57;31.54;102232.97;5131017;27;20023;-72
2022/03/09 06:23:05;;;;;;;14.90;6.67;;;;;;;10.56;31.56;102225.97;5112387;28;20125;-73
2022/03/09 06:25:30;;;;;;;13.73;6.70;;;;;;;8.99;33.63;102229.63;5131191;27;20046;-72
2022/03/09 06:27:56;;;;;;;14.60;6.80;;;;;;;9.28;33.41;102232.75;5112044;27;20025;-72
2022/03/09 06:30:21;;;;;;;16.07;7.10;;;;;;;9.73;33.31;102233.50;5131028;27;20467;-72
2022/03/09 06:32:47;;;;;;;14.27;6.17;;;;;;;9.27;34.10;102240.53;5131451;27;20057;-72
2022/03/09 06:35:14;;;;;;;19.03;7.63;;;;;;;10.38;32.14;102230.97;5111720;27;20363;-72
2022/03/09 06:37:40;;;;;;;17.30;7.50;;;;;;;10.24;31.89;102229.00;5131528;27;20059;-71
2022/03/09 06:40:07;;;;;;;12.97;6.47;;;;;;;10.76;31.44;102227.97;5100856;28;20028;-73
2022/03/09 06:42:33;;;;;;;17.37;7.70;;;;;;;9.64;33.05;102230.72;5120623;27;20023;-72
2022/03/09 06:44:58;;;;;;;14.47;6.80;;;;;;;9.24;33.88;102241.38;5118964;27;20098;-72
2022/03/09 06:47:24;;;;;;;15.63;6.70;;;;;;;9.75;32.68;102234.38;5119577;27;20262;-72
2022/03/09 06:49:50;;;;;;;15.23;6.97;;;;;;;10.42;32.12;102232.78;5119039;27;20031;-72
2022/03/09 06:52:15;;;;;;;13.77;6.63;;;;;;;8.51;34.68;102241.69;5119398;27;20030;-72
2022/03/09 06:54:41;;;;;;;14.00;6.97;;;;;;;9.03;33.90;102246.22;5115306;27;20402;-72
2022/03/09 06:57:06;;;;;;;13.60;6.23;;;;;;;9.20;33.79;102242.16;5119117;27;20026;-71
2022/03/09 06:59:32;;;;;;;12.57;6.40;;;;;;;10.07;32.70;102240.94;5120137;27;20149;-72
2022/03/09 07:01:57;;;;;;;11.87;5.50;;;;;;;9.08;33.76;102248.06;5137241;27;20046;-72
2022/03/09 07:04:22;;;;;;;17.10;7.17;;;;;;;10.44;32.09;102237.16;5119899;27;20027;-72
2022/03/09 07:06:48;;;;;;;14.63;6.47;;;;;;;10.57;31.99;102247.78;5118373;27;20023;-72
2022/03/09 07:09:14;;;;;;;14.93;6.67;;;;;;;9.68;32.96;102246.50;5117809;27;20015;-72
2022/03/09 07:11:41;;;;;;;16.60;6.70;;;;;;;10.63;31.59;102246.13;5119738;27;20023;-72
2022/03/09 07:14:07;;;;;;;14.93;7.37;;;;;;;10.32;32.46;102248.28;5119068;27;20044;-72
2022/03/09 07:16:32;;;;;;;14.87;6.77;;;;;;;10.66;31.80;102251.38;5117473;27;20022;-72
2022/03/09 07:18:58;;;;;;;17.07;7.00;;;;;;;11.45;30.65;102249.59;5137801;27;20027;-72
2022/03/09 07:21:23;;;;;;;21.10;7.63;;;;;;;10.12;32.92;102250.63;5118584;27;20080;-71
2022/03/09 07:23:49;;;;;;;15.80;7.20;;;;;;;9.77;33.17;102252.72;5118784;27;20426;-72
2022/03/09 07:26:15;;;;;;;15.60;6.67;;;;;;;10.22;32.75;102246.44;5114529;27;20069;-71
2022/03/09 07:28:41;;;;;;;18.53;7.17;;;;;;;10.53;32.46;102258.16;5117203;27;20047;-72
2022/03/09 07:31:07;;;;;;;16.03;8.87;;;;;;;10.67;31.94;102258.38;5136183;27;20146;-72
2022/03/09 07:33:32;;;;;;;15.37;7.60;;;;;;;10.38;32.96;102255.38;5103975;27;20031;-72
2022/03/09 07:36:00;;;;;;;19.73;7.23;;;;;;;10.31;32.64;102264.81;5119196;27;20042;-72
2022/03/09 07:38:25;;;;;;;16.03;7.47;;;;;;;9.63;33.94;102271.63;5118370;27;20038;-72
2022/03/09 07:40:50;;;;;;;16.83;7.50;;;;;;;9.39;34.77;102281.66;5118758;27;20031;-72
2022/03/09 07:43:16;;;;;;;15.27;7.77;;;;;;;11.02;32.28;102267.50;5118245;27;20027;-72
2022/03/09 07:45:41;;;;;;;15.23;6.83;;;;;;;10.47;33.05;102262.47;5118927;27;20031;-72
2022/03/09 07:48:07;;;;;;;18.03;7.33;;;;;;;10.84;32.53;102278.63;5118087;27;20064;-72
2022/03/09 07:50:33;;;;;;;18.53;7.33;;;;;;;11.88;31.59;102273.53;5137547;27;20054;-72
2022/03/09 07:52:58;;;;;;;14.90;7.70;;;;;;;14.05;28.07;102261.97;5117988;27;20015;-72
2022/03/09 07:55:24;;;;;;;16.33;7.20;;;;;;;13.37;28.79;102268.97;5133242;27;20490;-72
2022/03/09 07:57:49;;;;;;;15.13;7.40;;;;;;;12.74;29.25;102264.41;5115319;27;20447;-72
2022/03/09 08:00:15;;;;;;;22.57;7.63;;;;;;;12.70;29.55;102266.13;5114411;27;20038;-72
2022/03/09 08:02:40;;;;;;;10.90;5.63;;;;;;;10.44;32.66;102267.63;5134617;27;20469;-71
2022/03/09 08:05:07;;;;;;;15.87;7.20;;;;;;;11.84;30.65;102258.66;5133301;27;20019;-72
2022/03/09 08:07:32;;;;;;;14.00;6.43;;;;;;;11.16;31.72;102270.25;5115545;27;20027;-72
2022/03/09 08:09:57;;;;;;;11.80;6.20;;;;;;;11.14;31.58;102271.97;5112511;27;20063;-71
2022/03/09 08:12:23;;;;;;;14.63;6.47;;;;;;;10.98;31.48;102265.69;5114688;27;20463;-72
2022/03/09 08:14:48;;;;;;;15.70;7.53;;;;;;;11.76;30.94;102267.28;5116002;27;20031;-72
2022/03/09 08:17:14;;;;;;;16.80;7.27;;;;;;;11.43;31.58;102271.38;5114552;27;20026;-71
2022/03/09 08:19:39;;;;;;;16.23;7.03;;;;;;;12.05;31.05;102271.03;5114727;27;20023;-71
2022/03/09 08:22:05;;;;;;;18.17;7.40;;;;;;;10.74;33.00;102281.97;5115189;27;20117;-71
2022/03/09 08:24:30;;;;;;;16.20;7.60;;;;;;;11.66;32.04;102276.81;5115791;27;20051;-71
2022/03/09 08:26:55;;;;;;;14.47;6.57;;;;;;;12.76;30.28;102285.41;5132792;27;20031;-72
2022/03/09 08:29:21;;;;;;;15.70;7.13;;;;;;;11.50;32.15;102281.06;5115034;27;20043;-72
2022/03/09 08:31:46;;;;;;;15.37;6.83;;;;;;;13.55;29.00;102283.88;5114947;27;20072;-72
2022/03/09 08:34:11;;;;;;;13.97;6.93;;;;;;;12.44;29.91;102280.88;5112262;27;20026;-71
2022/03/09 08:36:37;;;;;;;13.70;7.00;;;;;;;11.12;31.90;102289.41;5133196;27;20019;-72
2022/03/09 08:39:03;;;;;;;14.50;7.57;;;;;;;11.08;32.89;102282.38;5112151;27;20019;-72
2022/03/09 08:41:30;;;;;;;15.70;7.73;;;;;;;11.50;32.25;102284.53;5113971;27;20036;-72
2022/03/09 08:43:56;;;;;;;17.30;7.93;;;;;;;11.74;32.04;102285.63;5113932;27;20023;-71
2022/03/09 08:46:21;;;;;;;17.37;7.20;;;;;;;11.40;32.49;102289.69;5113966;27;20029;-71
2022/03/09 08:48:46;;;;;;;18.83;8.77;;;;;;;12.42;31.08;102273.03;5112940;27;20023;-71
2022/03/09 08:51:12;;;;;;;20.90;7.50;;;;;;;13.02;30.14;102275.00;5112007;27;20023;-71
2022/03/09 08:53:38;;;;;;;14.90;6.80;;;;;;;12.10;31.99;102280.69;5131069;27;20015;-71
2022/03/09 08:56:07;;;;;;;14.37;7.53;;;;;;;12.98;30.40;102275.84;5112035;27;21255;-72
2022/03/09 08:58:34;;;;;;;16.73;7.40;;;;;;;12.84;30.86;102273.19;5131524;27;20011;-71
2022/03/09 09:00:59;;;;;;;17.77;8.27;;;;;;;13.93;29.59;102275.13;5132780;27;20031;-72
2022/03/09 09:03:24;;;;;;;14.70;7.33;;;;;;;14.22;29.22;102274.19;5113507;27;20142;-72
2022/03/09 09:05:52;;;;;;;16.97;8.20;;;;;;;13.82;29.81;102268.97;5113481;27;20482;-72
2022/03/09 09:08:17;;;;;;;17.07;8.77;;;;;;;13.39;29.74;102272.47;5113116;27;20019;-72
2022/03/09 09:10:43;;;;;;;18.53;7.37;;;;;;;13.70;29.37;102262.84;5132694;27;20027;-72
2022/03/09 09:13:08;;;;;;;14.87;7.17;;;;;;;12.85;30.55;102269.69;5112714;27;20019;-72
2022/03/09 09:15:34;;;;;;;16.93;7.90;;;;;;;13.60;29.30;102266.38;5127863;27;20050;-72
2022/03/09 09:18:01;;;;;;;21.73;8.67;;;;;;;13.32;29.69;102271.53;5113984;27;20031;-72
2022/03/09 09:20:27;;;;;;;14.57;7.33;;;;;;;14.13;28.93;102261.06;5131293;27;20019;-71
2022/03/09 09:22:54;;;;;;;18.50;7.80;;;;;;;16.20;26.21;102257.16;5108410;27;20379;-72
2022/03/09 09:25:20;;;;;;;17.77;7.90;;;;;;;15.91;26.13;102253.06;5113107;27;20023;-71
2022/03/09 09:27:45;;;;;;;17.93;7.80;;;;;;;16.63;24.92;102261.91;5114029;27;20407;-72
2022/03/09 09:30:11;;;;;;;13.73;6.93;;;;;;;17.65;24.23;102257.78;5112642;27;20035;-72
2022/03/09 09:32:37;;;;;;;19.70;7.70;;;;;;;18.98;22.70;102250.81;5132230;27;20026;-72
2022/03/09 09:35:02;;;;;;;20.73;9.10;;;;;;;19.18;22.71;102261.84;5114056;27;20023;-72
2022/03/09 09:37:28;;;;;;;14.93;8.07;;;;;;;21.42;20.01;102269.78;5112445;27;20390;-72
2022/03/09 09:39:53;;;;;;;19.23;8.53;;;;;;;21.33;20.68;102264.75;5113608;27;20471;-72
2022/03/09 09:42:22;;;;;;;20.42;8.70;;;;;;;21.49;20.21;102271.31;5130996;27;20035;-72
2022/03/09 09:44:47;;;;;;;19.80;8.65;;;;;;;21.92;20.00;102269.00;5112714;27;20073;-72
2022/03/09 09:47:14;;;;;;;17.60;9.40;;;;;;;19.82;21.52;102265.59;5112397;27;20027;-72
2022/03/09 09:49:41;;;;;;;20.23;9.10;;;;;;;21.30;20.49;102270.19;5107832;28;20118;-72
2022/03/09 09:52:07;;;;;;;20.08;8.93;;;;;;;23.08;18.71;102255.84;5106381;27;20055;-72
2022/03/09 09:54:33;;;;;;;21.65;8.73;;;;;;;23.45;18.26;102249.91;5108772;27;20027;-72
2022/03/09 09:57:00;;;;;;;17.73;9.00;;;;;;;22.22;19.18;102249.34;5107555;27;20087;-72
2022/03/09 09:59:25;;;;;;;15.45;8.82;;;;;;;20.23;21.30;102259.22;5112928;27;20375;-72
2022/03/09 10:01:50;;;;;;;19.25;9.50;;;;;;;22.43;19.62;102259.22;5113739;27;20029;-72
2022/03/09 10:04:16;;;;;;;18.17;9.38;;;;;;;22.62;19.45;102259.38;5113211;27;20035;-72
2022/03/09 10:06:41;;;;;;;17.08;9.05;;;;;;;23.91;18.13;102246.22;5113132;27;20095;-72
2022/03/09 10:09:12;;;;;;;17.60;10.07;;;;;;;23.38;18.63;102259.06;5113032;27;20033;-72
2022/03/09 10:11:54;;;;;;;20.63;9.75;;;;;;;22.45;19.25;102257.38;5131003;27;20034;-72
2022/03/09 10:14:41;;;;;;;21.92;10.55;;;;;;;23.15;18.56;102252.91;5112386;27;20440;-72
2022/03/09 10:17:09;;;;;;;20.92;9.57;;;;;;;21.31;20.18;102261.31;5109095;27;20027;-72
2022/03/09 10:19:37;;;;;;;19.23;10.10;;;;;;;22.84;19.16;102247.91;5091940;28;20023;-72
2022/03/09 10:22:22;;;;;;;20.45;10.23;;;;;;;21.04;20.96;102257.75;5111231;27;20019;-71
2022/03/09 10:24:47;;;;;;;23.80;11.63;;;;;;;20.30;21.47;102258.97;5113051;27;20047;-72
2022/03/09 10:27:41;;;;;;;17.73;9.75;;;;;;;19.39;22.95;102261.34;5111863;27;20034;-71
2022/03/09 10:30:10;;;;;;;17.52;9.07;;;;;;;21.44;21.20;102262.63;5095993;27;20020;-71
2022/03/09 10:33:07;;;;;;;21.75;10.65;;;;;;;20.42;22.03;102263.06;5113131;28;20033;-71
2022/03/09 10:35:32;;;;;;;19.73;10.20;;;;;;;21.45;21.14;102258.19;5112967;27;20394;-71
2022/03/09 10:38:06;;;;;;;20.45;9.48;;;;;;;20.67;21.44;102270.31;5131405;27;20034;-71
2022/03/09 10:40:40;;;;;;;23.90;10.73;;;;;;;21.50;21.10;102262.44;5130907;27;20042;-71
2022/03/09 10:43:10;;;;;;;19.20;9.38;;;;;;;22.27;19.64;102258.00;5112883;28;20422;-72
2022/03/09 10:45:36;;;;;;;21.58;10.40;;;;;;;22.88;20.06;102265.50;5113404;28;20027;-72
2022/03/09 10:48:01;;;;;;;19.95;10.48;;;;;;;22.19;20.35;102275.13;5130854;28;20034;-71
2022/03/09 10:50:30;;;;;;;26.05;12.00;;;;;;;23.55;19.28;102266.38;5111853;28;20041;-71
2022/03/09 10:53:04;;;;;;;19.98;10.02;;;;;;;22.33;20.37;102263.13;5112953;28;20046;-71
2022/03/09 10:55:37;;;;;;;21.38;9.40;;;;;;;24.28;18.56;102268.59;5112092;28;20031;-71
2022/03/09 10:58:22;;;;;;;23.23;11.45;;;;;;;22.04;20.56;102270.38;5111897;28;20023;-71
2022/03/09 11:00:51;;;;;;;23.52;11.95;;;;;;;22.87;19.41;102259.31;5111457;28;20063;-71
2022/03/09 11:03:21;;;;;;;27.60;11.25;;;;;;;23.16;19.42;102265.31;5112426;28;20019;-72
2022/03/09 11:05:54;;;;;;;21.88;10.93;;;;;;;23.53;19.79;102262.91;5113031;28;20033;-72
2022/03/09 11:08:21;;;;;;;21.85;11.07;;;;;;;22.73;20.50;102261.63;5112289;28;20438;-71
2022/03/09 11:10:47;;;;;;;21.13;11.00;;;;;;;21.33;21.89;102267.44;5113105;28;20062;-72
2022/03/09 11:13:14;;;;;;;22.92;11.13;;;;;;;22.79;20.17;102266.75;5112291;28;20011;-71